createdAt,value
2023-08-18T00:03:21.404Z,21.3
2023-08-18T00:08:25.971Z,21
2023-08-18T00:13:29.454Z,21.1
2023-08-18T00:18:34.159Z,21.2
2023-08-18T00:23:38.546Z,21.1
2023-08-18T00:28:42.105Z,20.8
2023-08-18T00:33:46.615Z,20.7
2023-08-18T00:38:51.175Z,20.5
2023-08-18T00:43:54.708Z,20.6
2023-08-18T00:48:59.262Z,20.6
2023-08-18T00:59:08.306Z,20.8
2023-08-18T01:04:11.884Z,20.7
2023-08-18T01:09:16.385Z,20.7
2023-08-18T01:14:20.947Z,20.9
2023-08-18T01:19:24.505Z,21.1
2023-08-18T01:24:29.047Z,21.3
2023-08-18T01:29:33.600Z,21.1
2023-08-18T01:34:37.099Z,20.9
2023-08-18T01:39:41.640Z,20.9
2023-08-18T01:44:46.200Z,20.9
2023-08-18T01:49:49.714Z,20.8
2023-08-18T01:54:54.274Z,20.7
2023-08-18T01:59:58.772Z,20.5
2023-08-18T02:10:06.863Z,20.3
2023-08-18T02:15:11.454Z,20.4
2023-08-18T02:25:19.525Z,20.5
2023-08-18T02:30:24.040Z,20.5
2023-08-18T02:35:28.556Z,20.6
2023-08-18T02:40:32.142Z,20.5
2023-08-18T02:45:36.747Z,20.4
2023-08-18T02:50:41.234Z,20.4
2023-08-18T02:55:44.753Z,20.4
2023-08-18T03:00:49.500Z,20.3
2023-08-18T03:05:53.856Z,20.3
2023-08-18T03:10:58.469Z,20.5
2023-08-18T03:16:01.932Z,20.5
2023-08-18T03:21:06.415Z,20.5
2023-08-18T03:26:10.948Z,20.1
2023-08-18T03:31:14.536Z,20
2023-08-18T03:36:19.044Z,19.7
2023-08-18T03:41:23.587Z,20.2
2023-08-18T03:46:27.139Z,20.2
2023-08-18T03:51:31.646Z,20.3
2023-08-18T03:56:36.183Z,20.4
2023-08-18T04:01:39.828Z,20.5
2023-08-18T04:11:47.822Z,20.5
2023-08-18T04:16:52.370Z,20.7
2023-08-18T04:21:56.888Z,20.5
2023-08-18T04:27:00.627Z,20.7
2023-08-18T04:32:05.001Z,20.4
2023-08-18T04:37:09.534Z,20.1
2023-08-18T04:42:13.100Z,20.1
2023-08-18T04:47:17.587Z,19.7
2023-08-18T04:52:22.146Z,19.2
2023-08-18T04:57:26.650Z,19.2
2023-08-18T05:07:34.784Z,19.5
2023-08-18T05:12:39.302Z,19.5
2023-08-18T05:17:42.899Z,19.6
2023-08-18T05:22:47.361Z,20.1
2023-08-18T05:27:51.900Z,20
2023-08-18T05:32:55.492Z,20.5
2023-08-18T05:37:59.982Z,20.4
2023-08-18T05:43:04.549Z,21.4
2023-08-18T05:48:08.137Z,21.7
2023-08-18T05:53:12.625Z,21.8
2023-08-18T05:58:17.121Z,22
2023-08-18T06:03:21.728Z,21.6
2023-08-18T06:08:25.198Z,21.5
2023-08-18T06:13:29.769Z,21.6
2023-08-18T06:18:34.631Z,21.9
2023-08-18T06:23:37.840Z,21.2
2023-08-18T06:28:42.392Z,21.2
2023-08-18T06:33:46.899Z,21.6
2023-08-18T06:38:50.446Z,21.5
2023-08-18T06:43:54.989Z,21.2
2023-08-18T06:48:59.507Z,21.1
2023-08-18T06:54:03.102Z,20.3
2023-08-18T06:59:07.602Z,20.8
2023-08-18T07:04:12.121Z,20.8
2023-08-18T07:09:16.686Z,20.9
2023-08-18T07:14:20.323Z,21.4
2023-08-18T07:19:25.238Z,21.7
2023-08-18T07:29:32.848Z,21.5
2023-08-18T07:34:37.438Z,21.7
2023-08-18T07:39:41.917Z,22.3
2023-08-18T07:44:45.478Z,22.2
2023-08-18T07:49:50.018Z,22.5
2023-08-18T07:54:54.558Z,22.9
2023-08-18T08:05:02.595Z,23.6
2023-08-18T08:10:07.144Z,23.9
2023-08-18T08:15:11.721Z,24.3
2023-08-18T08:25:18.876Z,24.6
2023-08-18T08:30:35.388Z,25.1
2023-08-18T08:35:29.602Z,24.5
2023-08-18T08:40:31.432Z,24.3
2023-08-18T08:45:35.975Z,25.4
2023-08-18T08:50:40.627Z,25.3
2023-08-18T08:55:45.044Z,25.7
2023-08-18T09:00:48.611Z,27.3
2023-08-18T09:05:53.091Z,27.3
2023-08-18T09:10:57.623Z,26.7
2023-08-18T09:16:01.174Z,27.4
2023-08-18T09:21:05.759Z,25.6
2023-08-18T09:26:10.279Z,27.3
2023-08-18T09:31:13.879Z,27.4
2023-08-18T09:36:18.356Z,27.7
2023-08-18T09:41:22.880Z,28.6
2023-08-18T09:46:26.446Z,28.9
2023-08-18T09:51:31.034Z,28.9
2023-08-18T09:56:38.397Z,29.1
2023-08-18T10:01:40.169Z,28.7
2023-08-18T10:06:43.655Z,27.6
2023-08-18T10:11:52.498Z,28.7
2023-08-18T10:16:52.704Z,28.7
2023-08-18T10:21:56.253Z,30.1
2023-08-18T10:27:00.804Z,30.4
2023-08-18T10:32:05.312Z,30.6
2023-08-18T10:37:08.894Z,29.7
2023-08-18T10:42:13.448Z,30.7
2023-08-18T10:47:17.919Z,29
2023-08-18T10:52:21.594Z,30.2
2023-08-18T10:57:26.067Z,31.6
2023-08-18T11:02:30.858Z,31.7
2023-08-18T11:07:35.168Z,31.8
2023-08-18T11:17:43.247Z,31.5
2023-08-18T11:22:47.743Z,30.9
2023-08-18T11:27:51.318Z,31.1
2023-08-18T11:32:55.872Z,30.9
2023-08-18T11:38:00.378Z,31.7
2023-08-18T11:43:03.953Z,31.9
2023-08-18T11:48:08.816Z,32.3
2023-08-18T11:53:13.043Z,32.1
2023-08-18T11:58:17.039Z,32.5
2023-08-18T12:03:21.361Z,31.9
2023-08-18T12:08:25.626Z,31.5
2023-08-18T12:13:30.158Z,32.1
2023-08-18T12:18:33.760Z,31.5
2023-08-18T12:23:38.270Z,31.8
2023-08-18T12:28:42.836Z,31.8
2023-08-18T12:33:46.392Z,31.3
2023-08-18T12:38:49.927Z,31.4
2023-08-18T12:43:54.506Z,32.4
2023-08-18T12:48:58.986Z,32.7
2023-08-18T12:54:03.534Z,31.8
2023-08-18T12:59:07.088Z,33.2
2023-08-18T13:04:11.694Z,31.7
2023-08-18T13:09:16.142Z,31.3
2023-08-18T13:14:25.921Z,32.6
2023-08-18T13:19:24.276Z,32.9
2023-08-18T13:24:28.794Z,32.4
2023-08-18T13:29:32.389Z,33.2
2023-08-18T13:34:36.879Z,33.3
2023-08-18T13:39:41.420Z,32.7
2023-08-18T13:44:44.971Z,33.2
2023-08-18T13:49:49.528Z,33.3
2023-08-18T13:54:54.047Z,33.5
2023-08-18T13:59:58.607Z,32.8
2023-08-18T14:05:02.247Z,33.5
2023-08-18T14:10:06.682Z,33.9
2023-08-18T14:15:11.264Z,33.5
2023-08-18T14:25:19.372Z,33.6
2023-08-18T14:30:23.947Z,33.3
2023-08-18T14:35:27.385Z,33
2023-08-18T14:40:31.925Z,32.9
2023-08-18T14:45:36.484Z,33
2023-08-18T14:50:40.048Z,32.9
2023-08-18T14:55:44.594Z,33.4
2023-08-18T15:00:49.173Z,33
2023-08-18T15:05:53.679Z,33.6
2023-08-18T15:10:57.200Z,33.1
2023-08-18T15:16:01.828Z,33.1
2023-08-18T15:21:06.265Z,33.6
2023-08-18T15:26:09.817Z,33.5
2023-08-18T15:31:14.356Z,33
2023-08-18T15:36:18.893Z,32.8
2023-08-18T15:41:22.429Z,32.8
2023-08-18T15:46:27.001Z,33.6
2023-08-18T15:51:31.795Z,34.5
2023-08-18T15:56:35.069Z,33.5
2023-08-18T16:01:39.659Z,34
2023-08-18T16:06:44.157Z,33.9
2023-08-18T16:11:48.700Z,33.9
2023-08-18T16:16:52.344Z,33.4
2023-08-18T16:21:56.759Z,34
2023-08-18T16:27:01.333Z,33.9
2023-08-18T16:32:04.851Z,34.7
2023-08-18T16:37:09.390Z,33.7
2023-08-18T16:42:13.909Z,33.5
2023-08-18T16:47:17.480Z,33.2
2023-08-18T16:52:22.009Z,33.7
2023-08-18T16:57:25.604Z,33.8
2023-08-18T17:02:30.174Z,33.7
2023-08-18T17:07:34.674Z,32.8
2023-08-18T17:12:38.218Z,33.4
2023-08-18T17:17:42.790Z,32.1
2023-08-18T17:22:47.292Z,31.8
2023-08-18T17:27:50.835Z,31.6
2023-08-18T17:32:55.387Z,31.5
2023-08-18T17:37:59.928Z,31.8
2023-08-18T17:43:03.429Z,32.3
2023-08-18T17:48:08.019Z,32.3
2023-08-18T17:53:12.539Z,32.1
2023-08-18T17:58:17.049Z,31.4
2023-08-18T18:03:20.776Z,31.5
2023-08-18T18:08:25.174Z,31.3
2023-08-18T18:13:32.863Z,30.8
2023-08-18T18:18:33.208Z,30.3
2023-08-18T18:23:37.746Z,30
2023-08-18T18:28:42.333Z,30.6
2023-08-18T18:33:45.851Z,30.3
2023-08-18T18:38:50.365Z,30.3
2023-08-18T18:43:54.947Z,30.1
2023-08-18T18:48:58.506Z,29.8
2023-08-18T18:54:03.063Z,29.2
2023-08-18T18:59:07.536Z,29.1
2023-08-18T19:04:12.123Z,29.1
2023-08-18T19:09:15.662Z,29.2
2023-08-18T19:14:20.152Z,28.6
2023-08-18T19:19:24.663Z,28.6
2023-08-18T19:24:28.255Z,28.6
2023-08-18T19:29:32.810Z,28.4
2023-08-18T19:34:37.295Z,28.5
2023-08-18T19:44:45.414Z,28.3
2023-08-18T19:49:49.943Z,28.3
2023-08-18T19:54:54.620Z,28.2
2023-08-18T20:05:03.664Z,28
2023-08-18T20:10:08.208Z,28
2023-08-18T20:15:11.733Z,27.9
2023-08-18T20:25:20.802Z,27.8
2023-08-18T20:30:24.426Z,27.6
2023-08-18T20:35:28.863Z,27.6
2023-08-18T20:40:33.437Z,27.6
2023-08-18T20:45:36.937Z,27.6
2023-08-18T20:50:41.498Z,27.6
2023-08-18T20:55:46.021Z,27.6
2023-08-18T21:00:49.625Z,27.5
2023-08-18T21:05:54.139Z,27.4
2023-08-18T21:10:57.653Z,27.3
2023-08-18T21:16:02.222Z,27.1
2023-08-18T21:21:06.729Z,27.3
2023-08-18T21:26:10.349Z,27
2023-08-18T21:31:14.862Z,26.8
2023-08-18T21:36:19.366Z,26.6
2023-08-18T21:41:22.928Z,26.3
2023-08-18T21:46:27.438Z,26.1
2023-08-18T21:51:31.979Z,26.1
2023-08-18T21:56:36.510Z,26.1
2023-08-18T22:01:40.055Z,26.3
2023-08-18T22:06:44.615Z,26.2
2023-08-18T22:11:52.502Z,26.3
2023-08-18T22:16:52.680Z,26.4
2023-08-18T22:21:57.211Z,26.4
2023-08-18T22:27:01.758Z,26.4
2023-08-18T22:32:05.326Z,26.5
2023-08-18T22:37:09.836Z,26.5
2023-08-18T22:42:14.356Z,26.4
2023-08-18T22:47:17.929Z,26.4
2023-08-18T22:52:22.465Z,26.3
2023-08-18T22:57:27.039Z,26.2
2023-08-18T23:02:31.573Z,26.2
2023-08-18T23:07:35.478Z,26.1
2023-08-18T23:12:39.645Z,25.9
2023-08-18T23:17:44.202Z,25.6
2023-08-18T23:22:47.707Z,25.2
2023-08-18T23:27:52.242Z,25
2023-08-18T23:32:56.791Z,25.2
2023-08-18T23:38:00.304Z,25.5
2023-08-18T23:43:04.850Z,25.6
2023-08-18T23:53:12.969Z,25.2
2023-08-18T23:58:17.481Z,24.9
